KLCI/LCI METAR and TAF weather

Enter ICAO airport designator
Station Type Date Time Source
KLCI METAR 2019/08/25 06:56 UTC NOAA

KLCI 250656Z AUTO 11004KT 10SM FEW042 BKN055 16/13 A3032 RMK AO2 SLP267 T01610128


Station Type Date Time Source
KLCI Decoded METAR 2019/08/25 06:56 UTC NOAA

Station name not available
Aug 25, 2019 - 02:56 AM EDT / 2019.08.25 0656 UTC
Wind: from the ESE (110 degrees) at 5 MPH (4 KT):0
Visibility: 10 mile(s):0
Sky conditions: mostly cloudy
Temperature: 61.0 F (16.1 C)
Dew Point: 55.0 F (12.8 C)
Relative Humidity: 80%
Pressure (altimeter): 30.32 in. Hg (1026 hPa)
ob: KLCI 250656Z AUTO 11004KT 10SM FEW042 BKN055 16/13 A3032 RMK AO2 SLP267 T01610128
cycle: 7

Station Type Date Time Source
KLCI TAF UTC NOAA

Error!

Example: see airport list